createdAt,value
2023-03-29T00:00:09.907Z,95.93
2023-03-29T00:01:09.890Z,96.45
2023-03-29T00:02:10.035Z,96.91
2023-03-29T00:03:09.980Z,96.76
2023-03-29T00:04:09.968Z,96.91
2023-03-29T00:05:09.881Z,96.24
2023-03-29T00:06:09.891Z,97.02
2023-03-29T00:07:09.896Z,97.02
2023-03-29T00:08:09.865Z,97.07
2023-03-29T00:09:10.037Z,97.33
2023-03-29T00:10:09.953Z,97.22
2023-03-29T00:11:09.952Z,97.33
2023-03-29T00:12:09.975Z,97.80
2023-03-29T00:13:10.595Z,97.85
2023-03-29T00:14:10.568Z,97.28
2023-03-29T00:15:09.960Z,96.76
2023-03-29T00:16:09.938Z,97.33
2023-03-29T00:17:09.890Z,97.12
2023-03-29T00:18:10.553Z,97.95
2023-03-29T00:19:09.977Z,97.28
2023-03-29T00:20:10.562Z,96.86
2023-03-29T00:21:09.892Z,97.28
2023-03-29T00:22:09.936Z,97.28
2023-03-29T00:23:09.888Z,97.74
2023-03-29T00:24:09.836Z,97.85
2023-03-29T00:25:09.790Z,97.64
2023-03-29T00:26:09.948Z,98.47
2023-03-29T00:27:09.862Z,98.47
2023-03-29T00:28:10.545Z,98.68
2023-03-29T00:29:09.794Z,98.26
2023-03-29T00:30:10.528Z,98.57
2023-03-29T00:31:09.949Z,98.57
2023-03-29T00:32:09.711Z,98.51
2023-03-29T00:33:09.943Z,98.30
2023-03-29T00:34:09.811Z,98.57
2023-03-29T00:35:09.665Z,98.41
2023-03-29T00:36:09.662Z,99.03
2023-03-29T00:37:09.835Z,99.34
2023-03-29T00:38:09.645Z,99.65
2023-03-29T00:39:09.672Z,99.99
2023-03-29T00:40:09.644Z,99.99
2023-03-29T00:41:09.640Z,99.92
2023-03-29T00:42:09.745Z,99.24
2023-03-29T00:43:09.616Z,99.71
2023-03-29T00:44:09.627Z,99.40
2023-03-29T00:45:09.628Z,99.61
2023-03-29T00:46:09.648Z,99.65
2023-03-29T00:47:09.609Z,99.44
2023-03-29T00:48:09.607Z,99.55
2023-03-29T00:49:09.631Z,99.99
2023-03-29T00:50:09.584Z,99.99
2023-03-29T00:51:10.540Z,99.96
2023-03-29T00:52:09.588Z,99.99
2023-03-29T00:53:09.557Z,99.99
2023-03-29T00:54:09.534Z,99.99
2023-03-29T00:55:09.531Z,99.99
2023-03-29T00:56:09.517Z,99.99
2023-03-29T00:57:09.585Z,99.99
2023-03-29T00:58:09.496Z,99.99
2023-03-29T00:59:09.531Z,99.99
2023-03-29T01:00:09.499Z,99.99
2023-03-29T01:01:09.482Z,99.96
2023-03-29T01:02:09.561Z,99.99
2023-03-29T01:03:09.510Z,99.99
2023-03-29T01:04:09.515Z,99.59
2023-03-29T01:05:09.473Z,99.55
2023-03-29T01:06:09.456Z,99.70
2023-03-29T01:07:09.533Z,99.70
2023-03-29T01:08:09.457Z,99.34
2023-03-29T01:09:09.438Z,99.76
2023-03-29T01:10:09.414Z,99.24
2023-03-29T01:11:09.409Z,99.24
2023-03-29T01:12:09.419Z,99.86
2023-03-29T01:13:09.457Z,99.13
2023-03-29T01:14:09.409Z,99.13
2023-03-29T01:15:09.388Z,98.97
2023-03-29T01:16:09.449Z,99.03
2023-03-29T01:17:09.382Z,99.24
2023-03-29T01:18:09.428Z,99.91
2023-03-29T01:19:09.388Z,99.91
2023-03-29T01:20:09.752Z,99.80
2023-03-29T01:21:09.360Z,99.24
2023-03-29T01:22:09.345Z,99.34
2023-03-29T01:23:09.358Z,99.44
2023-03-29T01:24:09.334Z,99.49
2023-03-29T01:25:09.336Z,99.55
2023-03-29T01:26:09.316Z,99.59
2023-03-29T01:27:09.337Z,99.65
2023-03-29T01:28:09.307Z,99.65
2023-03-29T01:29:09.314Z,99.34
2023-03-29T01:30:09.286Z,99.99
2023-03-29T01:31:09.276Z,99.99
2023-03-29T01:32:09.371Z,99.99
2023-03-29T01:33:09.273Z,99.99
2023-03-29T01:34:09.268Z,99.99
2023-03-29T01:35:09.254Z,99.99
2023-03-29T01:36:09.297Z,99.99
2023-03-29T01:37:09.275Z,99.99
2023-03-29T01:38:09.225Z,99.99
2023-03-29T01:39:09.247Z,99.99
2023-03-29T01:40:09.219Z,99.99
2023-03-29T01:41:09.203Z,99.99
2023-03-29T01:42:09.235Z,99.99
2023-03-29T01:43:09.190Z,99.99
2023-03-29T01:44:09.190Z,99.99
2023-03-29T01:45:09.187Z,99.99
2023-03-29T01:46:09.282Z,99.99
2023-03-29T01:47:09.200Z,99.99
2023-03-29T01:48:09.167Z,99.99
2023-03-29T01:49:09.171Z,99.99
2023-03-29T01:50:09.165Z,99.99
2023-03-29T01:51:09.147Z,99.99
2023-03-29T01:52:09.173Z,99.99
2023-03-29T01:53:09.138Z,99.99
2023-03-29T01:54:09.124Z,99.99
2023-03-29T01:55:09.123Z,99.99
2023-03-29T01:56:09.118Z,99.99
2023-03-29T01:57:09.129Z,99.99
2023-03-29T01:58:09.127Z,99.99
2023-03-29T01:59:09.093Z,99.99
2023-03-29T02:00:09.126Z,99.99
2023-03-29T02:01:09.116Z,99.99
2023-03-29T02:02:09.086Z,99.99
2023-03-29T02:03:09.221Z,99.99
2023-03-29T02:04:09.083Z,99.99
2023-03-29T02:05:09.062Z,99.99
2023-03-29T02:06:09.049Z,99.99
2023-03-29T02:07:09.050Z,99.99
2023-03-29T02:08:09.088Z,99.99
2023-03-29T02:09:09.039Z,99.99
2023-03-29T02:10:09.016Z,99.99
2023-03-29T02:11:09.030Z,99.99
2023-03-29T02:12:09.004Z,99.99
2023-03-29T02:13:09.036Z,99.99
2023-03-29T02:14:09.005Z,99.99
2023-03-29T02:15:09.001Z,99.99
2023-03-29T02:16:09.007Z,99.99
2023-03-29T02:17:08.975Z,99.99
2023-03-29T02:18:09.056Z,99.99
2023-03-29T02:19:08.965Z,99.99
2023-03-29T02:20:08.954Z,99.99
2023-03-29T02:21:08.942Z,99.99
2023-03-29T02:22:08.938Z,99.99
2023-03-29T02:23:08.983Z,99.99
2023-03-29T02:24:08.920Z,99.99
2023-03-29T02:25:08.938Z,99.99
2023-03-29T02:26:08.934Z,99.99
2023-03-29T02:27:08.914Z,99.99
2023-03-29T02:28:08.918Z,99.99
2023-03-29T02:29:08.894Z,99.99
2023-03-29T02:30:08.892Z,99.99
2023-03-29T02:31:08.921Z,99.99
2023-03-29T02:32:08.884Z,99.99
2023-03-29T02:33:08.986Z,99.99
2023-03-29T02:34:08.919Z,99.99
2023-03-29T02:35:09.004Z,99.99
2023-03-29T02:36:08.932Z,99.99
2023-03-29T02:37:08.829Z,99.99
2023-03-29T02:38:08.857Z,99.99
2023-03-29T02:39:08.875Z,99.99
2023-03-29T02:40:08.889Z,99.99
2023-03-29T02:41:08.859Z,99.99
2023-03-29T02:42:09.428Z,99.99
2023-03-29T02:43:10.541Z,99.99
2023-03-29T02:44:08.823Z,99.99
2023-03-29T02:45:08.815Z,99.99
2023-03-29T02:46:08.826Z,99.99
2023-03-29T02:47:08.893Z,99.99
2023-03-29T02:48:08.874Z,99.99
2023-03-29T02:49:09.437Z,99.99
2023-03-29T02:50:08.778Z,99.99
2023-03-29T02:51:08.813Z,99.99
2023-03-29T02:52:08.860Z,99.99
2023-03-29T02:53:08.978Z,99.99
2023-03-29T02:54:08.837Z,99.99
2023-03-29T02:55:09.432Z,99.99
2023-03-29T02:56:08.741Z,99.99
2023-03-29T02:57:08.951Z,99.99
2023-03-29T02:58:08.790Z,99.99
2023-03-29T02:59:08.773Z,99.99
2023-03-29T03:00:08.816Z,99.99
2023-03-29T03:01:08.799Z,99.99
2023-03-29T03:02:08.808Z,99.99
2023-03-29T03:03:08.911Z,99.99
2023-03-29T03:04:08.784Z,99.99
2023-03-29T03:05:08.732Z,99.99
2023-03-29T03:06:08.900Z,99.99
2023-03-29T03:07:08.781Z,99.99
2023-03-29T03:08:08.792Z,99.99
2023-03-29T03:09:08.622Z,99.99
2023-03-29T03:10:08.615Z,99.99
2023-03-29T03:11:08.610Z,99.99
2023-03-29T03:12:08.628Z,99.99
2023-03-29T03:13:08.603Z,99.99
2023-03-29T03:14:08.597Z,99.99
2023-03-29T03:15:08.789Z,99.99
2023-03-29T03:16:08.707Z,99.99
2023-03-29T03:17:08.593Z,99.99
2023-03-29T03:18:08.604Z,99.99
2023-03-29T03:19:08.541Z,99.99
2023-03-29T03:20:08.680Z,99.99
2023-03-29T03:21:08.598Z,99.99
2023-03-29T03:22:09.571Z,99.99
2023-03-29T03:23:08.659Z,99.99
2023-03-29T03:24:08.512Z,99.99
2023-03-29T03:25:08.515Z,99.99
2023-03-29T03:26:08.523Z,99.99
2023-03-29T03:27:08.512Z,99.99
2023-03-29T03:28:08.516Z,99.99
2023-03-29T03:29:08.518Z,99.96
2023-03-29T03:30:08.464Z,99.99
2023-03-29T03:31:08.468Z,99.99
2023-03-29T03:32:08.522Z,99.96
2023-03-29T03:33:08.470Z,99.99
2023-03-29T03:34:08.476Z,99.99
2023-03-29T03:35:08.469Z,99.99
2023-03-29T03:36:08.452Z,99.99
2023-03-29T03:37:08.419Z,99.99
2023-03-29T03:38:08.435Z,99.99
2023-03-29T03:39:08.423Z,99.99
2023-03-29T03:40:08.424Z,99.99
2023-03-29T03:41:08.399Z,99.99
2023-03-29T03:42:08.622Z,99.99
2023-03-29T03:43:08.399Z,99.99
2023-03-29T03:44:08.374Z,99.96
2023-03-29T03:45:08.366Z,99.99
2023-03-29T03:46:08.395Z,99.99
2023-03-29T03:47:08.384Z,99.99
2023-03-29T03:48:08.398Z,99.99
2023-03-29T03:49:08.355Z,99.65
2023-03-29T03:50:08.335Z,99.99
2023-03-29T03:51:08.316Z,99.99
2023-03-29T03:52:08.358Z,99.99
2023-03-29T03:53:08.349Z,99.99
2023-03-29T03:54:08.315Z,99.99
2023-03-29T03:55:08.300Z,99.99
2023-03-29T03:56:08.284Z,99.99
2023-03-29T03:57:08.333Z,99.99
2023-03-29T03:58:08.564Z,99.99
2023-03-29T03:59:08.268Z,99.99
2023-03-29T04:00:08.279Z,99.99
2023-03-29T04:01:08.261Z,99.99
2023-03-29T04:02:08.276Z,99.99
2023-03-29T04:03:08.452Z,99.99
2023-03-29T04:04:08.315Z,99.99
2023-03-29T04:05:08.262Z,99.99
2023-03-29T04:06:08.214Z,99.99
2023-03-29T04:07:08.223Z,99.99
2023-03-29T04:08:08.212Z,99.99
2023-03-29T04:09:08.191Z,99.99
2023-03-29T04:10:08.212Z,99.99
2023-03-29T04:11:08.250Z,99.99
2023-03-29T04:12:08.185Z,99.61
2023-03-29T04:13:08.200Z,99.99
2023-03-29T04:14:08.300Z,99.99
2023-03-29T04:15:08.174Z,99.82
2023-03-29T04:16:08.197Z,99.99
2023-03-29T04:17:08.141Z,99.99
2023-03-29T04:18:09.116Z,99.99
2023-03-29T04:19:08.149Z,99.86
2023-03-29T04:20:08.129Z,99.71
2023-03-29T04:21:08.135Z,99.82
2023-03-29T04:22:08.110Z,99.71
2023-03-29T04:23:08.120Z,99.71
2023-03-29T04:24:08.122Z,99.99
2023-03-29T04:25:08.112Z,99.65
2023-03-29T04:26:08.162Z,99.71
2023-03-29T04:27:08.084Z,99.51
2023-03-29T04:28:08.121Z,99.65
2023-03-29T04:29:08.097Z,99.65
2023-03-29T04:30:08.103Z,99.96
2023-03-29T04:31:08.150Z,99.99
2023-03-29T04:32:08.050Z,99.96
2023-03-29T04:33:08.089Z,99.99
2023-03-29T04:34:08.043Z,99.96
2023-03-29T04:35:08.095Z,99.99
2023-03-29T04:36:08.058Z,99.96
2023-03-29T04:37:08.009Z,99.99
2023-03-29T04:38:08.052Z,99.99
2023-03-29T04:39:07.994Z,99.99
2023-03-29T04:40:08.014Z,99.99
2023-03-29T04:41:07.990Z,99.92
2023-03-29T04:42:07.991Z,99.99
2023-03-29T04:43:08.020Z,99.99
2023-03-29T04:44:07.976Z,99.99
2023-03-29T04:45:08.041Z,99.96
2023-03-29T04:46:09.057Z,99.99
2023-03-29T04:47:07.952Z,99.99
2023-03-29T04:48:08.010Z,99.99
2023-03-29T04:49:07.934Z,99.92
2023-03-29T04:50:07.921Z,99.99
2023-03-29T04:51:07.915Z,99.99
2023-03-29T04:52:08.142Z,99.99
2023-03-29T04:53:07.921Z,99.99
2023-03-29T04:54:07.894Z,99.99
2023-03-29T04:55:07.931Z,99.99
2023-03-29T04:56:07.892Z,99.99
2023-03-29T04:57:07.915Z,99.99
2023-03-29T04:58:07.866Z,99.99
2023-03-29T04:59:07.882Z,99.92
2023-03-29T05:00:07.840Z,99.99
2023-03-29T05:01:08.928Z,99.99
2023-03-29T05:02:07.944Z,99.99
2023-03-29T05:03:07.900Z,99.99
2023-03-29T05:04:08.248Z,99.99
2023-03-29T05:05:07.833Z,99.99
2023-03-29T05:06:07.819Z,99.77
2023-03-29T05:07:07.818Z,99.99
2023-03-29T05:08:07.796Z,99.99
2023-03-29T05:09:07.985Z,99.99
2023-03-29T05:10:07.802Z,99.99
2023-03-29T05:11:07.801Z,99.99
2023-03-29T05:12:07.766Z,99.99
2023-03-29T05:13:07.765Z,99.99
2023-03-29T05:14:07.769Z,99.99
2023-03-29T05:15:07.766Z,99.98
2023-03-29T05:16:07.833Z,99.66
2023-03-29T05:17:07.783Z,99.66
2023-03-29T05:18:07.808Z,99.66
2023-03-29T05:19:07.720Z,99.87
2023-03-29T05:20:07.709Z,99.15
2023-03-29T05:21:07.726Z,99.35
2023-03-29T05:22:07.738Z,99.35
2023-03-29T05:23:07.690Z,99.46
2023-03-29T05:24:07.714Z,99.41
2023-03-29T05:25:07.694Z,99.10
2023-03-29T05:26:07.680Z,98.38
2023-03-29T05:27:07.684Z,98.94
2023-03-29T05:28:07.684Z,99.21
2023-03-29T05:29:07.677Z,99.10
2023-03-29T05:30:08.505Z,99.21
2023-03-29T05:31:07.730Z,98.58
2023-03-29T05:32:07.762Z,98.58
2023-03-29T05:33:07.757Z,97.65
2023-03-29T05:34:07.633Z,97.86
2023-03-29T05:35:07.650Z,97.55
2023-03-29T05:36:07.642Z,97.86
2023-03-29T05:37:07.595Z,97.44
2023-03-29T05:38:07.597Z,97.34
2023-03-29T05:39:07.603Z,97.13
2023-03-29T05:40:07.570Z,97.55
2023-03-29T05:41:07.567Z,97.34
2023-03-29T05:42:07.598Z,97.24
2023-03-29T05:43:07.561Z,97.24
2023-03-29T05:44:07.565Z,97.71
2023-03-29T05:45:07.554Z,97.34
2023-03-29T05:46:07.606Z,97.34
2023-03-29T05:47:07.531Z,97.60
2023-03-29T05:48:07.572Z,97.34
2023-03-29T05:49:07.523Z,97.65
2023-03-29T05:50:07.509Z,97.24
2023-03-29T05:51:07.504Z,97.86
2023-03-29T05:52:07.519Z,97.44
2023-03-29T05:53:07.489Z,97.44
2023-03-29T05:54:07.526Z,97.24
2023-03-29T05:55:07.467Z,97.09
2023-03-29T05:56:07.476Z,96.47
2023-03-29T05:57:07.502Z,97.09
2023-03-29T05:58:07.451Z,96.67
2023-03-29T05:59:07.440Z,96.88
2023-03-29T06:00:07.437Z,96.88
2023-03-29T06:01:07.421Z,97.09
2023-03-29T06:02:07.471Z,95.95
2023-03-29T06:03:17.977Z,95.39
2023-03-29T06:04:09.502Z,95.18
2023-03-29T06:05:07.484Z,95.07
2023-03-29T06:06:07.408Z,95.07
2023-03-29T06:07:07.380Z,94.97
2023-03-29T06:08:07.393Z,94.87
2023-03-29T06:09:07.390Z,94.87
2023-03-29T06:10:07.378Z,95.07
2023-03-29T06:11:07.588Z,95.07
2023-03-29T06:12:07.342Z,95.14
2023-03-29T06:13:07.343Z,93.58
2023-03-29T06:14:07.353Z,93.73
2023-03-29T06:15:07.325Z,93.52
2023-03-29T06:16:07.318Z,93.83
2023-03-29T06:17:07.368Z,94.14
2023-03-29T06:18:07.380Z,94.51
2023-03-29T06:19:07.313Z,93.68
2023-03-29T06:20:07.311Z,93.16
2023-03-29T06:21:07.599Z,92.76
2023-03-29T06:22:07.285Z,93.68
2023-03-29T06:23:07.274Z,93.68
2023-03-29T06:24:07.274Z,93.79
2023-03-29T06:25:07.258Z,93.68
2023-03-29T06:26:07.247Z,93.58
2023-03-29T06:27:07.243Z,92.85
2023-03-29T06:28:07.235Z,93.58
2023-03-29T06:29:07.232Z,93.27
2023-03-29T06:30:07.218Z,93.58
2023-03-29T06:31:07.351Z,92.71
2023-03-29T06:32:07.193Z,92.85
2023-03-29T06:33:07.224Z,92.96
2023-03-29T06:34:07.211Z,92.91
2023-03-29T06:35:07.176Z,93.33
2023-03-29T06:36:07.221Z,93.58
2023-03-29T06:37:07.159Z,93.54
2023-03-29T06:38:07.201Z,94.16
2023-03-29T06:39:07.431Z,93.33
2023-03-29T06:40:07.148Z,93.18
2023-03-29T06:41:07.145Z,93.60
2023-03-29T06:42:19.964Z,92.87
2023-03-29T06:43:09.135Z,92.77
2023-03-29T06:44:07.155Z,93.60
2023-03-29T06:45:07.117Z,92.77
2023-03-29T06:46:07.127Z,92.77
2023-03-29T06:47:07.094Z,93.91
2023-03-29T06:48:07.149Z,93.39
2023-03-29T06:49:07.116Z,92.00
2023-03-29T06:50:07.068Z,92.11
2023-03-29T06:51:07.144Z,92.21
2023-03-29T06:52:07.052Z,92.25
2023-03-29T06:53:08.072Z,91.90
2023-03-29T06:54:07.075Z,92.00
2023-03-29T06:55:07.044Z,91.69
2023-03-29T06:56:07.046Z,91.80
2023-03-29T06:57:07.078Z,92.00
2023-03-29T06:58:07.020Z,91.80
2023-03-29T06:59:07.035Z,91.38
2023-03-29T07:00:07.006Z,92.32
2023-03-29T07:01:07.208Z,92.32
2023-03-29T07:02:07.020Z,91.24
2023-03-29T07:03:07.235Z,91.96
2023-03-29T07:04:07.035Z,91.34
2023-03-29T07:05:06.959Z,91.96
2023-03-29T07:06:06.963Z,91.44
2023-03-29T07:07:06.957Z,91.40
2023-03-29T07:08:06.957Z,90.93
2023-03-29T07:09:06.970Z,90.78
2023-03-29T07:10:06.929Z,90.47
2023-03-29T07:11:07.947Z,90.68
2023-03-29T07:12:06.937Z,90.47
2023-03-29T07:13:06.907Z,90.37
2023-03-29T07:14:06.998Z,90.06
2023-03-29T07:15:06.910Z,89.81
2023-03-29T07:16:06.930Z,89.19
2023-03-29T07:17:06.903Z,89.56
2023-03-29T07:18:06.902Z,88.84
2023-03-29T07:19:06.889Z,88.84
2023-03-29T07:20:06.879Z,89.71
2023-03-29T07:21:06.868Z,89.15
2023-03-29T07:22:07.098Z,89.67
2023-03-29T07:23:06.891Z,88.84
2023-03-29T07:24:06.864Z,88.84
2023-03-29T07:25:06.817Z,89.01
2023-03-29T07:26:06.829Z,87.77
2023-03-29T07:27:06.812Z,87.77
2023-03-29T07:28:06.810Z,87.87
2023-03-29T07:29:06.815Z,88.08
2023-03-29T07:30:07.483Z,87.83
2023-03-29T07:31:06.837Z,87.11
2023-03-29T07:32:06.773Z,86.80
2023-03-29T07:33:06.855Z,86.66
2023-03-29T07:34:06.773Z,86.97
2023-03-29T07:35:06.755Z,86.66
2023-03-29T07:36:06.795Z,86.76
2023-03-29T07:37:06.741Z,86.61
2023-03-29T07:38:06.734Z,85.07
2023-03-29T07:39:06.745Z,86.29
2023-03-29T07:40:06.705Z,88.31
2023-03-29T07:41:06.733Z,86.82
2023-03-29T07:42:06.720Z,86.00
2023-03-29T07:43:06.693Z,85.96
2023-03-29T07:44:06.705Z,85.75
2023-03-29T07:45:06.688Z,86.16
2023-03-29T07:46:06.772Z,85.03
2023-03-29T07:47:06.659Z,84.87
2023-03-29T07:48:06.718Z,85.71
2023-03-29T07:49:06.700Z,85.30
2023-03-29T07:50:06.636Z,85.51
2023-03-29T07:51:06.629Z,85.10
2023-03-29T07:52:06.655Z,83.80
2023-03-29T07:53:06.620Z,85.30
2023-03-29T07:54:06.632Z,84.89
2023-03-29T07:55:06.626Z,85.03
2023-03-29T07:56:06.596Z,84.83
2023-03-29T07:57:06.636Z,83.86
2023-03-29T07:58:06.594Z,85.10
2023-03-29T07:59:06.651Z,82.05
2023-03-29T08:00:06.558Z,82.35
2023-03-29T08:01:07.098Z,82.15
2023-03-29T08:02:06.555Z,83.49
2023-03-29T08:03:06.643Z,83.22
2023-03-29T08:04:06.589Z,83.05
2023-03-29T08:05:06.667Z,82.74
2023-03-29T08:06:06.539Z,82.81
2023-03-29T08:07:06.533Z,82.95
2023-03-29T08:08:06.525Z,82.70
2023-03-29T08:09:06.504Z,82.81
2023-03-29T08:10:06.514Z,82.87
2023-03-29T08:11:06.498Z,83.01
2023-03-29T08:12:06.490Z,82.29
2023-03-29T08:13:06.487Z,82.81
2023-03-29T08:14:06.501Z,82.77
2023-03-29T08:15:06.499Z,82.97
2023-03-29T08:16:06.493Z,82.46
2023-03-29T08:17:06.506Z,83.07
2023-03-29T08:18:06.461Z,82.46
2023-03-29T08:19:06.438Z,82.56
2023-03-29T08:20:06.451Z,82.81
2023-03-29T08:21:06.436Z,83.42
2023-03-29T08:22:06.436Z,83.63
2023-03-29T08:23:06.431Z,83.73
2023-03-29T08:24:06.399Z,83.84
2023-03-29T08:25:06.409Z,84.87
2023-03-29T08:26:06.392Z,85.17
2023-03-29T08:27:06.394Z,84.87
2023-03-29T08:28:06.376Z,85.59
2023-03-29T08:29:06.365Z,85.10
2023-03-29T08:30:06.393Z,84.25
2023-03-29T08:31:06.406Z,85.34
2023-03-29T08:32:06.358Z,85.55
2023-03-29T08:33:06.396Z,85.14
2023-03-29T08:34:06.336Z,85.20
2023-03-29T08:35:06.485Z,84.48
2023-03-29T08:36:06.371Z,84.00
2023-03-29T08:37:06.316Z,84.93
2023-03-29T08:38:06.319Z,85.24
2023-03-29T08:39:06.316Z,85.86
2023-03-29T08:40:06.401Z,85.17
2023-03-29T08:41:06.298Z,85.51
2023-03-29T08:42:06.290Z,83.18
2023-03-29T08:43:06.302Z,85.03
2023-03-29T08:44:06.260Z,85.24
2023-03-29T08:45:06.271Z,83.35
2023-03-29T08:46:06.280Z,83.14
2023-03-29T08:47:06.251Z,84.17
2023-03-29T08:48:06.271Z,83.31
2023-03-29T08:49:06.226Z,83.45
2023-03-29T08:50:06.246Z,82.79
2023-03-29T08:51:07.971Z,84.31
2023-03-29T08:52:07.205Z,83.00
2023-03-29T08:53:06.212Z,82.90
2023-03-29T08:54:06.203Z,82.59
2023-03-29T08:55:06.201Z,81.91
2023-03-29T08:56:06.190Z,82.83
2023-03-29T08:57:06.196Z,82.01
2023-03-29T08:58:06.186Z,82.73
2023-03-29T08:59:06.177Z,81.87
2023-03-29T09:00:06.184Z,82.73
2023-03-29T09:01:06.231Z,82.48
2023-03-29T09:02:06.245Z,82.79
2023-03-29T09:03:06.207Z,82.90
2023-03-29T09:04:06.189Z,82.48
2023-03-29T09:05:06.147Z,82.18
2023-03-29T09:06:06.110Z,81.67
2023-03-29T09:07:06.109Z,81.21
2023-03-29T09:08:06.086Z,81.46
2023-03-29T09:09:06.095Z,81.83
2023-03-29T09:10:06.138Z,81.15
2023-03-29T09:11:06.114Z,80.53
2023-03-29T09:12:06.092Z,81.93
2023-03-29T09:13:06.136Z,82.10
2023-03-29T09:14:06.059Z,80.46
2023-03-29T09:15:06.064Z,81.42
2023-03-29T09:16:06.164Z,81.18
2023-03-29T09:17:06.024Z,81.52
2023-03-29T09:18:06.034Z,82.20
2023-03-29T09:19:06.044Z,81.90
2023-03-29T09:20:06.010Z,81.79
2023-03-29T09:21:05.995Z,81.04
2023-03-29T09:22:06.008Z,80.38
2023-03-29T09:23:05.994Z,81.38
2023-03-29T09:24:06.009Z,81.90
2023-03-29T09:25:06.005Z,80.52
2023-03-29T09:26:05.972Z,80.56
2023-03-29T09:27:05.955Z,80.42
2023-03-29T09:28:05.958Z,80.01
2023-03-29T09:29:07.714Z,80.77
2023-03-29T09:30:05.974Z,79.87
2023-03-29T09:31:05.982Z,80.42
2023-03-29T09:32:05.952Z,81.41
2023-03-29T09:33:05.969Z,80.32
2023-03-29T09:34:05.909Z,80.52
2023-03-29T09:35:05.915Z,79.87
2023-03-29T09:36:05.935Z,79.87
2023-03-29T09:37:05.885Z,80.58
2023-03-29T09:38:05.895Z,79.56
2023-03-29T09:39:05.906Z,79.52
2023-03-29T09:40:05.887Z,78.85
2023-03-29T09:41:06.068Z,80.07
2023-03-29T09:42:05.880Z,79.52
2023-03-29T09:43:05.835Z,79.63
2023-03-29T09:44:05.833Z,79.18
2023-03-29T09:45:05.867Z,78.53
2023-03-29T09:46:05.862Z,77.02
2023-03-29T09:47:05.822Z,76.81
2023-03-29T09:48:05.858Z,77.26
2023-03-29T09:49:05.802Z,76.51
2023-03-29T09:50:07.351Z,77.16
2023-03-29T09:51:05.806Z,77.16
2023-03-29T09:52:05.805Z,77.47
2023-03-29T09:53:05.775Z,78.08
2023-03-29T09:54:05.762Z,78.66
2023-03-29T09:55:05.769Z,77.09
2023-03-29T09:56:05.774Z,76.34
2023-03-29T09:57:05.763Z,77.15
2023-03-29T09:58:05.744Z,77.16
2023-03-29T09:59:05.733Z,78.35
2023-03-29T10:00:05.764Z,78.83
2023-03-29T10:01:05.980Z,76.54
2023-03-29T10:02:05.722Z,77.46
2023-03-29T10:03:06.574Z,76.06
2023-03-29T10:04:05.766Z,77.94
2023-03-29T10:05:05.687Z,78.86
2023-03-29T10:06:05.703Z,78.93
2023-03-29T10:07:05.697Z,76.54
2023-03-29T10:08:05.693Z,78.45
2023-03-29T10:09:05.657Z,78.19
2023-03-29T10:10:05.652Z,79.38
2023-03-29T10:11:05.691Z,77.19
2023-03-29T10:12:05.618Z,78.76
2023-03-29T10:13:05.624Z,77.76
2023-03-29T10:14:05.636Z,76.75
2023-03-29T10:15:05.871Z,79.13
2023-03-29T10:16:05.673Z,78.25
2023-03-29T10:17:05.639Z,78.01
2023-03-29T10:18:05.653Z,78.56
2023-03-29T10:19:05.610Z,77.98
2023-03-29T10:20:06.435Z,78.25
2023-03-29T10:21:05.797Z,76.98
2023-03-29T10:22:05.571Z,77.23
2023-03-29T10:23:05.548Z,76.84
2023-03-29T10:24:05.546Z,76.23
2023-03-29T10:25:05.583Z,76.03
2023-03-29T10:26:05.576Z,76.40
2023-03-29T10:27:05.530Z,75.27
2023-03-29T10:28:05.547Z,75.48
2023-03-29T10:29:05.524Z,76.61
2023-03-29T10:30:05.510Z,76.06
2023-03-29T10:31:05.694Z,75.34
2023-03-29T10:32:05.577Z,75.79
2023-03-29T10:33:05.531Z,76.81
2023-03-29T10:34:05.518Z,76.78
2023-03-29T10:35:05.484Z,74.69
2023-03-29T10:36:05.545Z,75.27
2023-03-29T10:37:05.509Z,75.96
2023-03-29T10:38:05.453Z,74.39
2023-03-29T10:39:06.193Z,74.18
2023-03-29T10:40:05.462Z,73.94
2023-03-29T10:41:05.489Z,74.73
2023-03-29T10:42:05.436Z,74.25
2023-03-29T10:43:05.420Z,74.05
2023-03-29T10:44:05.427Z,74.11
2023-03-29T10:45:05.408Z,74.76
2023-03-29T10:46:06.457Z,73.98
2023-03-29T10:47:05.388Z,73.06
2023-03-29T10:48:05.451Z,73.44
2023-03-29T10:49:05.396Z,73.10
2023-03-29T10:50:05.407Z,76.81
2023-03-29T10:51:05.556Z,77.08
2023-03-29T10:52:05.357Z,77.25
2023-03-29T10:53:05.349Z,76.12
2023-03-29T10:54:05.336Z,75.65
2023-03-29T10:55:05.366Z,76.16
2023-03-29T10:56:05.340Z,75.82
2023-03-29T10:57:05.382Z,75.00
2023-03-29T10:58:05.310Z,74.84
2023-03-29T10:59:05.319Z,75.31
2023-03-29T11:00:05.297Z,74.66
2023-03-29T11:01:05.726Z,74.87
2023-03-29T11:02:05.326Z,72.99
2023-03-29T11:03:05.398Z,73.60
2023-03-29T11:04:05.347Z,73.06
2023-03-29T11:05:05.258Z,73.36
2023-03-29T11:06:05.274Z,73.40
2023-03-29T11:07:05.256Z,74.05
2023-03-29T11:08:05.246Z,75.27
2023-03-29T11:09:05.241Z,75.24
2023-03-29T11:10:05.255Z,76.61
2023-03-29T11:11:05.414Z,76.54
2023-03-29T11:12:15.453Z,76.20
2023-03-29T11:13:07.214Z,75.89
2023-03-29T11:14:05.200Z,78.14
2023-03-29T11:15:05.187Z,76.64
2023-03-29T11:16:05.226Z,75.51
2023-03-29T11:17:05.209Z,74.97
2023-03-29T11:18:05.209Z,74.87
2023-03-29T11:19:05.165Z,74.97
2023-03-29T11:20:05.429Z,73.67
2023-03-29T11:21:10.350Z,73.27
2023-03-29T11:22:06.142Z,74.52
2023-03-29T11:23:05.150Z,74.69
2023-03-29T11:24:05.141Z,73.74
2023-03-29T11:25:05.166Z,72.62
2023-03-29T11:26:05.130Z,71.70
2023-03-29T11:27:05.104Z,70.72
2023-03-29T11:28:05.096Z,69.60
2023-03-29T11:29:05.090Z,71.02
2023-03-29T11:30:05.100Z,73.88
2023-03-29T11:31:05.487Z,71.15
2023-03-29T11:32:05.208Z,71.33
2023-03-29T11:33:05.223Z,70.44
2023-03-29T11:34:05.087Z,72.82
2023-03-29T11:35:05.044Z,72.45
2023-03-29T11:36:05.120Z,74.42
2023-03-29T11:37:05.036Z,74.69
2023-03-29T11:38:05.021Z,74.66
2023-03-29T11:39:05.047Z,73.30
2023-03-29T11:40:05.002Z,72.72
2023-03-29T11:41:05.152Z,72.52
2023-03-29T11:42:04.999Z,71.56
2023-03-29T11:43:05.030Z,70.85
2023-03-29T11:44:04.978Z,72.48
2023-03-29T11:45:04.991Z,71.26
2023-03-29T11:46:05.021Z,72.41
2023-03-29T11:47:05.036Z,71.91
2023-03-29T11:48:04.975Z,72.17
2023-03-29T11:49:04.959Z,72.21
2023-03-29T11:50:04.986Z,73.40
2023-03-29T11:51:04.989Z,73.30
2023-03-29T11:52:04.921Z,74.25
2023-03-29T11:53:04.919Z,74.01
2023-03-29T11:54:04.916Z,74.21
2023-03-29T11:55:04.902Z,73.26
2023-03-29T11:56:04.911Z,72.69
2023-03-29T11:57:04.922Z,73.36
2023-03-29T11:58:04.897Z,72.24
2023-03-29T11:59:04.859Z,72.38
2023-03-29T12:00:05.894Z,72.48
2023-03-29T12:01:04.936Z,72.48
2023-03-29T12:02:04.880Z,73.19
2023-03-29T12:03:04.912Z,72.38
2023-03-29T12:04:04.930Z,71.70
2023-03-29T12:05:04.835Z,72.62
2023-03-29T12:06:04.831Z,70.85
2023-03-29T12:07:04.807Z,70.72
2023-03-29T12:08:04.802Z,70.65
2023-03-29T12:09:04.800Z,70.78
2023-03-29T12:10:04.798Z,71.73
2023-03-29T12:11:05.099Z,70.86
2023-03-29T12:12:04.772Z,71.84
2023-03-29T12:13:04.755Z,70.99
2023-03-29T12:14:04.744Z,70.82
2023-03-29T12:15:04.770Z,70.58
2023-03-29T12:16:04.806Z,69.43
2023-03-29T12:17:05.644Z,68.92
2023-03-29T12:18:04.758Z,68.58
2023-03-29T12:19:04.709Z,66.86
2023-03-29T12:20:04.699Z,66.49
2023-03-29T12:21:04.820Z,66.83
2023-03-29T12:22:04.694Z,67.97
2023-03-29T12:23:04.700Z,69.87
2023-03-29T12:24:04.680Z,70.92
2023-03-29T12:25:04.676Z,68.65
2023-03-29T12:26:04.695Z,68.35
2023-03-29T12:27:04.668Z,68.41
2023-03-29T12:28:04.640Z,69.32
2023-03-29T12:29:04.639Z,67.60
2023-03-29T12:30:04.657Z,68.95
2023-03-29T12:31:04.890Z,69.56
2023-03-29T12:32:04.741Z,69.36
2023-03-29T12:33:04.663Z,69.87
2023-03-29T12:34:04.660Z,70.28
2023-03-29T12:35:04.614Z,69.40
2023-03-29T12:36:04.645Z,69.84
2023-03-29T12:37:04.622Z,70.48
2023-03-29T12:38:04.622Z,69.53
2023-03-29T12:39:04.583Z,69.36
2023-03-29T12:40:04.607Z,68.10
2023-03-29T12:41:04.799Z,69.43
2023-03-29T12:42:04.567Z,67.94
2023-03-29T12:43:04.560Z,68.32
2023-03-29T12:44:04.544Z,68.99
2023-03-29T12:45:04.562Z,69.40
2023-03-29T12:46:04.846Z,69.36
2023-03-29T12:47:04.539Z,69.06
2023-03-29T12:48:04.624Z,67.27
2023-03-29T12:49:04.506Z,67.13
2023-03-29T12:50:04.673Z,63.20
2023-03-29T12:51:04.529Z,63.35
2023-03-29T12:52:04.520Z,64.97